Ortega (1243) Station Data

Red Flag Warning: No
Fire Weather Zone: 242
SDGE Region: Orange County
Lat/Lon: 33.57/-117.513

Observations

Time Wind Speed/Gust Temp(F) RH Fuel Moist Fuel Temp(F) Dewpt(F) Tmax(F) Tmin(F) Accum Precip 10-min Precip SL Press(mb)
3/29 8:00am 52 5 G 7 62° 26% - - 27° 65° 57.7° - - 1020.0
3/29 7:50am 50 5 G 9 62° 25% - - 26° 65° 57.7° - - 1019.0
3/29 7:40am 48 7 G 10 61° 24% - - 24° 65° 57.7° - - 1020.0
3/29 7:30am 46 7 G 10 59° 27% - - 25° 65° 57.7° - - 1020.0
3/29 7:20am 50 7 G 10 60° 24% - - 23° 65° 58.8° - - 1020.0
3/29 7:10am 47 7 G 9 60° 23% - - 22° 65° 58.8° - - 1020.0
3/29 7:00am 50 6 G 8 60° 23% - - 22° 65° 58.8° - - 1020.0
3/29 6:50am 54 5 G 7 61° 22% - - 22° 65° 58.8° - - 1019.0
3/29 6:40am 10 3 G 5 61° 21% - - 21° 65° 58.8° - - 1019.0
3/29 6:30am 26 1 G 3 61° 21% - - 21° 65° 58.8° - - 1019.0
3/29 6:20am 2 1 G 2 60° 23% - - 22° 65° 58.8° - - 1019.0
3/29 6:10am 272 2 G 7 63° 20% - - 21° 65° 58.9° - - 1019.0
3/29 6:00am 51 6 G 8 64° 18% - - 20° 65° 58.9° - - 1018.0
3/29 5:50am 67 4 G 7 64° 18% - - 19° 65° 58.9° - - 1018.0
3/29 5:40am 0 1 G 2 62° 20% - - 20° 65° 58.9° - - 1019.0
3/29 5:30am 204 1 G 3 63° 20% - - 20° 65° 58.9° - - 1018.0
3/29 5:20am 61 6 G 8 64° 18% - - 19° 65° 58.9° - - 1018.0
3/29 5:10am 56 7 G 10 62° 20% - - 20° 65° 58.9° - - 1018.0
3/29 5:00am 54 7 G 9 60° 22% - - 21° 65° 58.9° - - 1019.0
3/29 4:50am 48 6 G 8 61° 20% - - 20° 65° 58.9° - - 1019.0
3/29 4:40am 46 4 G 6 62° 20% - - 20° 65° 58.9° - - 1019.0
3/29 4:30am 57 1 G 3 60° 22% - - 21° 65° 58.9° - - 1019.0
3/29 4:20am 102 1 G 2 60° 21% - - 21° 65° 58.9° - - 1019.0
3/29 4:10am 50 2 G 4 61° 20% - - 20° 65° 58.9° - - 1019.0
3/29 4:00am 41 5 G 7 62° 20% - - 20° 65° 58.9° - - 1019.0
3/29 3:50am 52 4 G 7 62° 19% - - 20° 65° 58.9° - - 1019.0
3/29 3:40am 53 5 G 9 61° 20% - - 20° 65° 58.9° - - 1019.0
3/29 3:30am 50 4 G 7 62° 20% - - 20° 65° 58.9° - - 1019.0
3/29 3:20am 15 2 G 4 62° 20% - - 20° 65° 58.9° - - 1019.0
3/29 3:10am 350 2 G 4 63° 19% - - 20° 65° 58.9° - - 1019.0
3/29 3:00am 81 1 G 3 63° 18% - - 19° 65° 58.9° - - 1019.0
3/29 2:50am 50 3 G 7 64° 17% - - 18° 65° 58.9° - - 1019.0
3/29 2:40am 38 3 G 6 64° 18% - - 19° 65° 58.9° - - 1019.0
3/29 2:30am 5 1 G 4 63° 19% - - 20° 65° 58.9° - - 1019.0
3/29 2:20am 316 2 G 5 64° 18% - - 19° 65° 58.9° - - 1019.0
3/29 2:10am 353 1 G 4 63° 19% - - 20° 64.8° 58.9° - - 1019.0
3/29 2:00am 252 0 G 2 63° 18% - - 20° 64.8° 58.9° - - 1019.0
3/29 1:50am 31 4 G 7 63° 19% - - 20° 64.8° 58.9° - - 1019.0
3/29 1:40am 48 6 G 10 62° 21% - - 21° 64.8° 58.9° - - 1019.0
3/29 1:30am 20 4 G 8 64° 18% - - 20° 64.8° 58.9° - - 1019.0
3/29 1:20am 16 1 G 4 63° 18% - - 19° 64.8° 58.9° - - 1019.0
3/29 1:10am 35 4 G 9 61° 21% - - 20° 64.8° 58.9° - - 1019.0
3/29 1:00am 51 7 G 9 60° 23% - - 22° 64.8° 58.9° - - 1019.0
3/29 12:50am 53 6 G 10 60° 23% - - 22° 64.8° 58.9° - - 1019.0
3/29 12:40am 48 8 G 11 60° 23% - - 22° 64.8° 58.9° - - 1019.0
3/29 12:30am 51 7 G 10 61° 21% - - 21° 64.8° 60.2° - - 1019.0
3/29 12:20am 47 7 G 10 62° 20% - - 20° 64.8° 60.2° - - 1019.0
3/29 12:10am 45 4 G 6 63° 18% - - 19° 64.8° 62.5° - - 1019.0
3/29 12:00am 51 6 G 8 63° 18% - - 19° 73° 50.2° - - 1019.0
3/28 11:50pm 53 5 G 8 62° 19% - - 19° 73° 50.2° - - 1019.0
3/28 11:40pm 52 7 G 10 61° 21% - - 21° 73° 50.2° - - 1019.0
3/28 11:30pm 50 8 G 11 58° 25% - - 23° 73° 50.2° - - 1020.0
3/28 11:20pm 48 8 G 9 58° 26% - - 23° 73° 50.2° - - 1020.0
3/28 11:10pm 48 8 G 11 57° 28% - - 24° 73° 50.2° - - 1020.0
3/28 11:00pm 51 8 G 11 58° 28% - - 24° 73° 50.2° - - 1020.0
3/28 10:50pm 48 8 G 10 58° 27% - - 25° 73° 50.2° - - 1019.0
3/28 10:40pm 49 8 G 10 58° 28% - - 25° 73° 50.2° - - 1020.0
3/28 10:30pm 49 8 G 11 58° 29% - - 26° 73° 50.2° - - 1019.0
3/28 10:20pm 52 8 G 12 57° 31% - - 27° 73° 50.2° - - 1019.0
3/28 10:10pm 52 8 G 11 57° 32% - - 28° 73° 50.2° - - 1020.0
3/28 10:00pm 53 9 G 11 57° 33% - - 28° 73° 50.2° - - 1020.0
3/28 9:50pm 52 8 G 11 56° 34% - - 28° 73° 50.2° - - 1020.0
3/28 9:40pm 51 8 G 11 57° 32% - - 27° 73° 50.2° - - 1019.0
3/28 9:30pm 53 8 G 10 58° 31% - - 27° 73° 50.2° - - 1019.0
3/28 9:20pm 50 8 G 10 58° 32% - - 28° 73° 50.2° - - 1019.0
3/28 9:10pm 54 8 G 10 58° 31% - - 27° 73° 50.2° - - 1019.0
3/28 9:00pm 56 9 G 12 58° 31% - - 28° 73° 50.2° - - 1019.0
3/28 8:50pm 51 7 G 10 58° 32% - - 28° 73° 50.2° - - 1019.0
3/28 8:40pm 54 8 G 11 57° 34% - - 29° 73° 50.2° - - 1019.0
3/28 8:30pm 50 8 G 10 57° 35% - - 30° 73° 50.2° - - 1019.0
3/28 8:20pm 49 7 G 9 58° 35% - - 30° 73° 50.2° - - 1019.0
3/28 8:10pm 51 7 G 10 58° 35% - - 31° 73° 50.2° - - 1019.0
3/28 8:00pm 52 7 G 9 60° 33% - - 31° 73° 50.2° - - 1019.0
3/28 7:50pm 48 7 G 9 60° 34% - - 31° 73° 50.2° - - 1019.0
3/28 7:40pm 46 5 G 8 61° 32% - - 31° 73° 50.2° - - 1018.0
3/28 7:30pm 53 6 G 8 62° 33% - - 32° 73° 50.2° - - 1018.0
3/28 7:20pm 47 4 G 7 64° 28% - - 30° 73° 50.2° - - 1018.0
3/28 7:10pm 65 2 G 5 66° 26% - - 30° 73° 50.2° - - 1018.0
3/28 7:00pm 178 0 G 3 67° 24% - - 29° 73° 50.2° - - 1018.0
3/28 6:50pm 199 1 G 3 68° 24% - - 30° 73° 50.2° - - 1017.0
3/28 6:40pm 209 2 G 4 69° 24% - - 30° 73° 50.2° - - 1017.0
3/28 6:30pm 225 4 G 7 68° 22% - - 28° 73° 50.2° - - 1017.0
3/28 6:20pm 224 4 G 9 69° 23% - - 30° 73° 50.2° - - 1017.0
3/28 6:10pm 229 5 G 9 70° 23% - - 30° 73° 50.2° - - 1017.0
3/28 6:00pm 228 4 G 8 70° 23% - - 31° 73° 50.2° - - 1017.0
3/28 5:50pm 245 6 G 10 70° 22% - - 30° 73° 50.2° - - 1017.0
3/28 5:40pm 229 5 G 10 71° 23% - - 31° 73° 50.2° - - 1017.0
3/28 5:30pm 247 4 G 8 71° 23% - - 31° 73° 50.2° - - 1017.0
3/28 5:20pm 268 3 G 8 72° 22% - - 31° 73° 50.2° - - 1017.0
3/28 5:10pm 266 4 G 9 71° 24% - - 32° 73° 50.2° - - 1017.0
3/28 5:00pm 233 7 G 13 70° 23% - - 31° 73° 50.2° - - 1017.0
3/28 4:50pm 238 5 G 11 71° 24% - - 32° 73° 50.2° - - 1017.0
3/28 4:40pm 230 6 G 12 70° 24% - - 32° 73° 50.2° - - 1017.0
3/28 4:30pm 226 4 G 11 71° 24% - - 32° 73° 50.2° - - 1017.0
3/28 4:20pm 224 5 G 9 71° 26% - - 34° 73° 50.2° - - 1017.0
3/28 4:10pm 224 5 G 8 70° 27% - - 35° 73° 50.2° - - 1017.0
3/28 4:00pm 222 5 G 10 71° 28% - - 36° 73° 50.2° - - 1017.0
3/28 3:50pm 219 5 G 9 70° 29% - - 37° 73° 50.2° - - 1017.0
3/28 3:40pm 226 5 G 9 70° 31% - - 38° 73° 50.2° - - 1017.0
3/28 3:30pm 227 6 G 12 70° 32% - - 39° 73° 50.2° - - 1017.0
3/28 3:20pm 204 4 G 10 71° 32% - - 40° 73° 50.2° - - 1017.0
3/28 3:10pm 211 6 G 11 69° 34% - - 39° 73° 50.2° - - 1017.0
3/28 3:00pm 232 9 G 13 69° 35% - - 40° 73° 50.2° - - 1017.0
3/28 2:50pm 237 7 G 13 70° 36% - - 42° 73° 50.2° - - 1017.0
3/28 2:40pm 227 6 G 11 70° 39% - - 44° 73° 50.2° - - 1017.0
3/28 2:30pm 228 5 G 10 70° 45% - - 47° 73° 50.2° - - 1018.0
3/28 2:20pm 228 7 G 13 69° 45% - - 47° 73° 50.2° - - 1018.0
3/28 2:10pm 225 5 G 10 69° 44% - - 46° 73° 50.2° - - 1018.0
3/28 2:00pm 230 7 G 13 69° 44% - - 46° 73° 50.2° - - 1018.0
3/28 1:50pm 217 6 G 10 71° 41% - - 46° 73° 50.2° - - 1018.0
3/28 1:40pm 249 6 G 10 70° 41% - - 45° 73° 50.2° - - 1018.0
3/28 1:30pm 210 5 G 12 71° 43% - - 47° 73° 50.2° - - 1018.0
3/28 1:20pm 191 6 G 12 71° 44% - - 48° 73° 50.2° - - 1018.0
3/28 1:10pm 232 6 G 11 69° 43% - - 45° 73° 50.2° - - 1019.0
3/28 1:00pm 217 6 G 12 69° 45% - - 47° 73° 50.2° - - 1019.0
3/28 12:50pm 228 6 G 12 69° 43% - - 45° 73° 50.2° - - 1019.0
3/28 12:40pm 225 6 G 13 69° 42% - - 46° 73° 50.2° - - 1019.0
3/28 12:30pm 205 6 G 17 71° 31% - - 39° 73° 50.2° - - 1019.0
3/28 12:20pm 275 5 G 14 71° 15% - - 20° 73° 50.2° - - 1019.0
3/28 12:10pm 231 3 G 10 72° 23% - - 32° 73° 50.2° - - 1019.0
3/28 12:00pm 201 5 G 12 71° 18% - - 25° 72.5° 50.2° - - 1019.0
3/28 11:50am 229 3 G 11 70° 25% - - 32° 71.4° 50.2° - - 1019.0
3/28 11:40am 209 4 G 8 70° 29% - - 36° 70.2° 50.2° - - 1019.0
3/28 11:30am 212 4 G 9 69° 27% - - 34° 69.7° 50.2° - - 1019.0
3/28 11:20am 213 4 G 8 68° 27% - - 33° 69.2° 50.2° - - 1019.0
3/28 11:10am 223 5 G 10 67° 34% - - 38° 68.5° 50.2° - - 1019.0
3/28 11:00am 236 4 G 10 68° 26% - - 31° 68.5° 50.2° - - 1019.0
3/28 10:50am 237 4 G 9 67° 32% - - 36° 67.5° 50.2° - - 1019.0
3/28 10:40am 246 4 G 8 67° 28% - - 33° 67.5° 50.2° - - 1019.0
3/28 10:30am 201 3 G 7 67° 31% - - 35° 67.3° 50.2° - - 1020.0
3/28 10:20am 210 3 G 6 65° 35% - - 37° 65.8° 50.2° - - 1020.0
3/28 10:10am 213 3 G 6 64° 41% - - 40° 65.3° 50.2° - - 1020.0
3/28 10:00am 192 3 G 6 63° 43% - - 40° 63.9° 50.2° - - 1020.0
3/28 9:50am 243 4 G 7 62° 49% - - 42° 63° 50.2° - - 1020.0
3/28 9:40am 239 4 G 6 62° 47% - - 41° 63° 50.2° - - 1020.0
3/28 9:30am 193 3 G 5 63° 41% - - 39° 63° 50.2° - - 1020.0
3/28 9:20am 229 1 G 4 61° 46% - - 40° 62.2° 50.2° - - 1020.0
3/28 9:10am 258 2 G 5 60° 51% - - 41° 61.6° 50.2° - - 1020.0
3/28 9:00am 274 1 G 3 59° 52% - - 42° 61.6° 50.2° - - 1020.0
3/28 8:50am 192 1 G 3 59° 54% - - 42° 61.6° 50.2° - - 1020.0
3/28 8:40am 235 1 G 3 59° 52% - - 41° 61.6° 50.2° - - 1020.0
3/28 8:30am 261 1 G 3 58° 53% - - 41° 61.6° 50.2° - - 1020.0
3/28 8:20am 9 2 G 6 57° 57% - - 42° 61.6° 50.2° - - 1020.0
3/28 8:10am 174 2 G 4 57° 55% - - 41° 61.6° 50.2° - - 1020.0
3/28 8:00am 24 2 G 4 56° 59% - - 42° 61.6° 50.2° - - 1020.0
3/28 7:50am 61 2 G 5 56° 60% - - 42° 61.6° 50.2° - - 1020.0
3/28 7:40am 252 1 G 4 55° 61% - - 42° 61.6° 50.2° - - 1020.0
3/28 7:30am 299 3 G 6 54° 62% - - 41° 61.6° 50.2° - - 1020.0
3/28 7:20am 289 2 G 5 53° 66% - - 42° 61.6° 50.2° - - 1020.0
3/28 7:10am 123 3 G 5 52° 65% - - 41° 61.6° 50.2° - - 1020.0
3/28 7:00am 318 3 G 8 54° 60% - - 40° 61.6° 50.2° - - 1019.0
3/28 6:50am 304 3 G 7 57° 47% - - 37° 61.6° 50.2° - - 1019.0
3/28 6:40am 12 3 G 5 56° 53% - - 39° 61.6° 50.2° - - 1019.0
3/28 6:30am 315 2 G 4 55° 63% - - 42° 61.6° 50.2° - - 1019.0
3/28 6:20am 293 2 G 4 54° 66% - - 43° 61.6° 50.2° - - 1019.0
3/28 6:10am 254 2 G 6 53° 70% - - 44° 61.6° 50.2° - - 1019.0
3/28 6:00am 310 1 G 4 53° 75% - - 45° 61.6° 50.2° - - 1019.0